Fairview Park, Ohio
Current Conditions -  °F | °C
As of 7:51 PM on Wednesday 17 Dec 2014 (Local Time) from KCLE Reporting Station
Light Snow Light Snow  
Wind Chill: 19°   Ceiling: 2100
Heat Index: 29°   Visibility: 9mi
Dew Point: 21°   Wind: 13mph
Humidity: 72%   Direction: 290°WNW
Pressure: 30.17"   Gusts: NA
Location:  41.45°N, 81.85°W
Report Text: KCLE 180051Z 29011KT 9SM -SN OVC021 M02/M06 A3017 RMK AO2 SLP224 P0000 T10171061
Loading
Personal Weather Stations






























Interactive Weather Map New forecast layout! Learn more

10-Day Weather Forecast

Advertisements
Track Severe Weather on mobile